sensor_id;sensor_type;location;lat;lon;timestamp;temperature;humidity
16287;DHT22;8251;53.568;10.018;2023-04-03T00:01:33;6.90;69.10
16287;DHT22;8251;53.568;10.018;2023-04-03T00:04:01;7.00;69.20
16287;DHT22;8251;53.568;10.018;2023-04-03T00:06:30;7.00;69.10
16287;DHT22;8251;53.568;10.018;2023-04-03T00:08:57;6.90;69.10
16287;DHT22;8251;53.568;10.018;2023-04-03T00:11:24;6.90;68.90
16287;DHT22;8251;53.568;10.018;2023-04-03T00:13:52;6.90;69.20
16287;DHT22;8251;53.568;10.018;2023-04-03T00:16:23;6.90;70.20
16287;DHT22;8251;53.568;10.018;2023-04-03T00:18:52;6.90;69.10
16287;DHT22;8251;53.568;10.018;2023-04-03T00:21:18;6.90;69.00
16287;DHT22;8251;53.568;10.018;2023-04-03T00:23:47;6.90;69.10
16287;DHT22;8251;53.568;10.018;2023-04-03T00:26:15;6.90;69.60
16287;DHT22;8251;53.568;10.018;2023-04-03T00:28:42;6.90;70.20
16287;DHT22;8251;53.568;10.018;2023-04-03T00:31:09;6.90;69.40
16287;DHT22;8251;53.568;10.018;2023-04-03T00:33:37;6.90;69.70
16287;DHT22;8251;53.568;10.018;2023-04-03T00:36:09;6.90;69.60
16287;DHT22;8251;53.568;10.018;2023-04-03T00:38:38;6.90;69.30
16287;DHT22;8251;53.568;10.018;2023-04-03T00:41:06;6.90;69.50
16287;DHT22;8251;53.568;10.018;2023-04-03T00:43:35;6.90;69.50
16287;DHT22;8251;53.568;10.018;2023-04-03T00:46:03;6.90;69.40
16287;DHT22;8251;53.568;10.018;2023-04-03T00:48:32;6.80;69.40
16287;DHT22;8251;53.568;10.018;2023-04-03T00:51:01;6.90;69.50
16287;DHT22;8251;53.568;10.018;2023-04-03T00:53:37;6.80;69.30
16287;DHT22;8251;53.568;10.018;2023-04-03T00:56:10;6.80;69.40
16287;DHT22;8251;53.568;10.018;2023-04-03T00:58:43;6.80;69.30
16287;DHT22;8251;53.568;10.018;2023-04-03T01:01:16;6.80;69.30
16287;DHT22;8251;53.568;10.018;2023-04-03T01:03:46;6.80;69.20
16287;DHT22;8251;53.568;10.018;2023-04-03T01:06:16;6.80;69.30
16287;DHT22;8251;53.568;10.018;2023-04-03T01:08:45;6.80;69.50
16287;DHT22;8251;53.568;10.018;2023-04-03T01:11:15;6.80;69.50
16287;DHT22;8251;53.568;10.018;2023-04-03T01:13:42;6.80;69.50
16287;DHT22;8251;53.568;10.018;2023-04-03T01:16:11;6.80;69.60
16287;DHT22;8251;53.568;10.018;2023-04-03T01:18:40;6.80;69.50
16287;DHT22;8251;53.568;10.018;2023-04-03T01:21:39;6.80;69.60
16287;DHT22;8251;53.568;10.018;2023-04-03T01:24:27;6.70;69.70
16287;DHT22;8251;53.568;10.018;2023-04-03T01:26:55;6.70;69.30
16287;DHT22;8251;53.568;10.018;2023-04-03T01:29:26;6.70;70.00
16287;DHT22;8251;53.568;10.018;2023-04-03T01:32:07;6.70;70.20
16287;DHT22;8251;53.568;10.018;2023-04-03T01:34:35;6.70;70.40
16287;DHT22;8251;53.568;10.018;2023-04-03T01:37:04;6.70;70.70
16287;DHT22;8251;53.568;10.018;2023-04-03T01:39:31;6.70;70.60
16287;DHT22;8251;53.568;10.018;2023-04-03T01:41:58;6.60;70.70
16287;DHT22;8251;53.568;10.018;2023-04-03T01:44:26;6.70;70.80
16287;DHT22;8251;53.568;10.018;2023-04-03T01:46:53;6.60;70.70
16287;DHT22;8251;53.568;10.018;2023-04-03T01:49:23;6.60;70.90
16287;DHT22;8251;53.568;10.018;2023-04-03T01:51:52;6.60;70.90
16287;DHT22;8251;53.568;10.018;2023-04-03T01:54:20;6.60;70.80
16287;DHT22;8251;53.568;10.018;2023-04-03T01:56:48;6.60;71.00
16287;DHT22;8251;53.568;10.018;2023-04-03T01:59:15;6.70;70.80
16287;DHT22;8251;53.568;10.018;2023-04-03T02:01:43;6.60;70.50
16287;DHT22;8251;53.568;10.018;2023-04-03T02:04:11;6.50;70.70
16287;DHT22;8251;53.568;10.018;2023-04-03T02:06:41;6.50;70.70
16287;DHT22;8251;53.568;10.018;2023-04-03T02:09:09;6.50;70.70
16287;DHT22;8251;53.568;10.018;2023-04-03T02:11:37;6.50;70.40
16287;DHT22;8251;53.568;10.018;2023-04-03T02:14:06;6.50;70.40
16287;DHT22;8251;53.568;10.018;2023-04-03T02:16:34;6.50;70.20
16287;DHT22;8251;53.568;10.018;2023-04-03T02:19:01;6.50;70.30
16287;DHT22;8251;53.568;10.018;2023-04-03T02:21:28;6.50;70.50
16287;DHT22;8251;53.568;10.018;2023-04-03T02:24:01;6.50;70.50
16287;DHT22;8251;53.568;10.018;2023-04-03T02:26:31;6.50;70.60
16287;DHT22;8251;53.568;10.018;2023-04-03T02:29:08;6.50;70.50
16287;DHT22;8251;53.568;10.018;2023-04-03T02:31:36;6.50;70.30
16287;DHT22;8251;53.568;10.018;2023-04-03T02:34:04;6.40;70.10
16287;DHT22;8251;53.568;10.018;2023-04-03T02:36:32;6.40;70.20
16287;DHT22;8251;53.568;10.018;2023-04-03T02:39:02;6.40;70.20
16287;DHT22;8251;53.568;10.018;2023-04-03T02:41:31;6.40;70.30
16287;DHT22;8251;53.568;10.018;2023-04-03T02:44:01;6.30;70.60
16287;DHT22;8251;53.568;10.018;2023-04-03T02:46:30;6.40;70.50
16287;DHT22;8251;53.568;10.018;2023-04-03T02:48:58;6.30;70.70
16287;DHT22;8251;53.568;10.018;2023-04-03T02:51:26;6.30;70.90
16287;DHT22;8251;53.568;10.018;2023-04-03T02:54:08;6.20;70.90
16287;DHT22;8251;53.568;10.018;2023-04-03T02:56:35;6.30;70.80
16287;DHT22;8251;53.568;10.018;2023-04-03T02:59:02;6.30;71.00
16287;DHT22;8251;53.568;10.018;2023-04-03T03:01:38;6.30;71.10
16287;DHT22;8251;53.568;10.018;2023-04-03T03:04:07;6.20;71.10
16287;DHT22;8251;53.568;10.018;2023-04-03T03:06:38;6.20;71.10
16287;DHT22;8251;53.568;10.018;2023-04-03T03:09:05;6.20;71.30
16287;DHT22;8251;53.568;10.018;2023-04-03T03:11:34;6.20;71.50
16287;DHT22;8251;53.568;10.018;2023-04-03T03:14:02;6.20;71.70
16287;DHT22;8251;53.568;10.018;2023-04-03T03:16:30;6.20;71.50
16287;DHT22;8251;53.568;10.018;2023-04-03T03:18:57;6.20;71.70
16287;DHT22;8251;53.568;10.018;2023-04-03T03:21:25;6.20;71.60
16287;DHT22;8251;53.568;10.018;2023-04-03T03:23:53;6.20;71.60
16287;DHT22;8251;53.568;10.018;2023-04-03T03:26:21;6.20;71.50
16287;DHT22;8251;53.568;10.018;2023-04-03T03:28:51;6.10;71.50
16287;DHT22;8251;53.568;10.018;2023-04-03T03:31:18;6.20;71.80
16287;DHT22;8251;53.568;10.018;2023-04-03T03:33:45;6.10;71.80
16287;DHT22;8251;53.568;10.018;2023-04-03T03:36:13;6.10;71.70
16287;DHT22;8251;53.568;10.018;2023-04-03T03:38:43;6.10;71.70
16287;DHT22;8251;53.568;10.018;2023-04-03T03:41:10;6.10;72.00
16287;DHT22;8251;53.568;10.018;2023-04-03T03:43:38;6.10;72.20
16287;DHT22;8251;53.568;10.018;2023-04-03T03:46:06;6.10;72.00
16287;DHT22;8251;53.568;10.018;2023-04-03T03:48:33;6.10;72.10
16287;DHT22;8251;53.568;10.018;2023-04-03T03:51:03;6.10;72.10
16287;DHT22;8251;53.568;10.018;2023-04-03T03:53:33;6.20;72.10
16287;DHT22;8251;53.568;10.018;2023-04-03T03:56:02;6.10;72.10
16287;DHT22;8251;53.568;10.018;2023-04-03T03:58:29;6.10;71.90
16287;DHT22;8251;53.568;10.018;2023-04-03T04:00:56;6.20;71.90
16287;DHT22;8251;53.568;10.018;2023-04-03T04:03:25;6.10;71.70
16287;DHT22;8251;53.568;10.018;2023-04-03T04:06:00;6.10;71.80
16287;DHT22;8251;53.568;10.018;2023-04-03T04:08:27;6.10;72.30
16287;DHT22;8251;53.568;10.018;2023-04-03T04:10:54;6.00;72.50
16287;DHT22;8251;53.568;10.018;2023-04-03T04:13:21;6.10;72.70
16287;DHT22;8251;53.568;10.018;2023-04-03T04:15:49;6.10;72.70
16287;DHT22;8251;53.568;10.018;2023-04-03T04:18:17;6.10;72.80
16287;DHT22;8251;53.568;10.018;2023-04-03T04:20:46;6.10;73.10
16287;DHT22;8251;53.568;10.018;2023-04-03T04:23:15;6.00;73.10
16287;DHT22;8251;53.568;10.018;2023-04-03T04:25:44;6.00;73.40
16287;DHT22;8251;53.568;10.018;2023-04-03T04:28:11;6.00;73.40
16287;DHT22;8251;53.568;10.018;2023-04-03T04:30:40;5.90;73.40
16287;DHT22;8251;53.568;10.018;2023-04-03T04:33:09;5.90;73.20
16287;DHT22;8251;53.568;10.018;2023-04-03T04:35:36;5.90;73.40
16287;DHT22;8251;53.568;10.018;2023-04-03T04:38:06;5.90;73.20
16287;DHT22;8251;53.568;10.018;2023-04-03T04:40:35;5.80;73.10
16287;DHT22;8251;53.568;10.018;2023-04-03T04:43:03;5.80;73.20
16287;DHT22;8251;53.568;10.018;2023-04-03T04:45:31;5.80;73.30
16287;DHT22;8251;53.568;10.018;2023-04-03T04:47:58;5.70;73.30
16287;DHT22;8251;53.568;10.018;2023-04-03T04:50:29;5.70;73.60
16287;DHT22;8251;53.568;10.018;2023-04-03T04:52:56;5.60;73.70
16287;DHT22;8251;53.568;10.018;2023-04-03T04:55:29;5.60;73.80
16287;DHT22;8251;53.568;10.018;2023-04-03T04:57:56;5.50;73.90
16287;DHT22;8251;53.568;10.018;2023-04-03T05:00:25;5.50;74.10
16287;DHT22;8251;53.568;10.018;2023-04-03T05:02:55;5.50;74.30
16287;DHT22;8251;53.568;10.018;2023-04-03T05:05:24;5.50;74.40
16287;DHT22;8251;53.568;10.018;2023-04-03T05:07:53;5.50;74.40
16287;DHT22;8251;53.568;10.018;2023-04-03T05:10:25;5.50;74.30
16287;DHT22;8251;53.568;10.018;2023-04-03T05:12:54;5.50;74.50
16287;DHT22;8251;53.568;10.018;2023-04-03T05:15:21;5.50;74.50
16287;DHT22;8251;53.568;10.018;2023-04-03T05:17:48;5.50;74.40
16287;DHT22;8251;53.568;10.018;2023-04-03T05:20:18;5.60;74.60
16287;DHT22;8251;53.568;10.018;2023-04-03T05:22:46;5.60;74.50
16287;DHT22;8251;53.568;10.018;2023-04-03T05:25:13;5.60;74.50
16287;DHT22;8251;53.568;10.018;2023-04-03T05:27:40;5.60;74.40
16287;DHT22;8251;53.568;10.018;2023-04-03T05:30:13;5.60;74.50
16287;DHT22;8251;53.568;10.018;2023-04-03T05:32:40;5.60;74.70
16287;DHT22;8251;53.568;10.018;2023-04-03T05:35:10;5.60;74.90
16287;DHT22;8251;53.568;10.018;2023-04-03T05:37:39;5.60;74.70
16287;DHT22;8251;53.568;10.018;2023-04-03T05:40:07;5.70;75.10
16287;DHT22;8251;53.568;10.018;2023-04-03T05:42:34;5.80;75.60
16287;DHT22;8251;53.568;10.018;2023-04-03T05:45:03;5.80;75.00
16287;DHT22;8251;53.568;10.018;2023-04-03T05:47:31;5.90;74.60
16287;DHT22;8251;53.568;10.018;2023-04-03T05:49:58;5.90;74.40
16287;DHT22;8251;53.568;10.018;2023-04-03T05:52:28;6.00;74.40
16287;DHT22;8251;53.568;10.018;2023-04-03T05:54:56;6.00;74.90
16287;DHT22;8251;53.568;10.018;2023-04-03T05:57:23;6.10;74.90
16287;DHT22;8251;53.568;10.018;2023-04-03T05:59:53;6.10;74.40
16287;DHT22;8251;53.568;10.018;2023-04-03T06:02:21;6.20;74.20
16287;DHT22;8251;53.568;10.018;2023-04-03T06:04:53;6.20;73.80
16287;DHT22;8251;53.568;10.018;2023-04-03T06:07:22;6.30;73.30
16287;DHT22;8251;53.568;10.018;2023-04-03T06:09:49;6.40;73.70
16287;DHT22;8251;53.568;10.018;2023-04-03T06:12:17;6.50;73.30
16287;DHT22;8251;53.568;10.018;2023-04-03T06:14:44;6.50;72.70
16287;DHT22;8251;53.568;10.018;2023-04-03T06:17:11;6.60;72.40
16287;DHT22;8251;53.568;10.018;2023-04-03T06:19:39;6.70;72.00
16287;DHT22;8251;53.568;10.018;2023-04-03T06:22:07;6.80;71.80
16287;DHT22;8251;53.568;10.018;2023-04-03T06:24:34;6.90;71.40
16287;DHT22;8251;53.568;10.018;2023-04-03T06:27:01;7.10;71.00
16287;DHT22;8251;53.568;10.018;2023-04-03T06:29:28;7.20;70.10
16287;DHT22;8251;53.568;10.018;2023-04-03T06:31:55;7.50;69.80
16287;DHT22;8251;53.568;10.018;2023-04-03T06:34:22;7.70;69.40
16287;DHT22;8251;53.568;10.018;2023-04-03T06:36:49;8.10;68.70
16287;DHT22;8251;53.568;10.018;2023-04-03T06:39:20;8.50;67.90
16287;DHT22;8251;53.568;10.018;2023-04-03T06:41:47;9.10;65.80
16287;DHT22;8251;53.568;10.018;2023-04-03T06:44:14;9.80;63.70
16287;DHT22;8251;53.568;10.018;2023-04-03T06:46:42;10.60;61.30
16287;DHT22;8251;53.568;10.018;2023-04-03T06:49:09;11.50;59.40
16287;DHT22;8251;53.568;10.018;2023-04-03T06:51:37;12.60;56.60
16287;DHT22;8251;53.568;10.018;2023-04-03T06:54:05;13.80;54.50
16287;DHT22;8251;53.568;10.018;2023-04-03T06:56:33;15.10;50.70
16287;DHT22;8251;53.568;10.018;2023-04-03T06:59:00;16.50;47.90
16287;DHT22;8251;53.568;10.018;2023-04-03T07:01:29;18.00;44.80
16287;DHT22;8251;53.568;10.018;2023-04-03T07:03:57;19.30;41.60
16287;DHT22;8251;53.568;10.018;2023-04-03T07:06:24;20.00;39.30
16287;DHT22;8251;53.568;10.018;2023-04-03T07:08:53;20.70;38.20
16287;DHT22;8251;53.568;10.018;2023-04-03T07:11:20;21.20;37.20
16287;DHT22;8251;53.568;10.018;2023-04-03T07:13:48;21.50;36.70
16287;DHT22;8251;53.568;10.018;2023-04-03T07:16:15;21.70;36.00
16287;DHT22;8251;53.568;10.018;2023-04-03T07:18:42;21.90;35.30
16287;DHT22;8251;53.568;10.018;2023-04-03T07:21:09;21.90;35.00
16287;DHT22;8251;53.568;10.018;2023-04-03T07:23:36;21.90;34.90
16287;DHT22;8251;53.568;10.018;2023-04-03T07:26:04;21.90;35.00
16287;DHT22;8251;53.568;10.018;2023-04-03T07:28:31;22.10;34.80
16287;DHT22;8251;53.568;10.018;2023-04-03T07:31:03;22.30;33.60
16287;DHT22;8251;53.568;10.018;2023-04-03T07:33:31;22.30;33.00
16287;DHT22;8251;53.568;10.018;2023-04-03T07:35:58;21.90;33.00
16287;DHT22;8251;53.568;10.018;2023-04-03T07:38:26;22.10;33.60
16287;DHT22;8251;53.568;10.018;2023-04-03T07:40:53;22.20;33.40
16287;DHT22;8251;53.568;10.018;2023-04-03T07:43:20;22.50;32.90
16287;DHT22;8251;53.568;10.018;2023-04-03T07:45:48;22.80;32.70
16287;DHT22;8251;53.568;10.018;2023-04-03T07:48:20;22.90;32.80
16287;DHT22;8251;53.568;10.018;2023-04-03T07:50:47;22.70;32.00
16287;DHT22;8251;53.568;10.018;2023-04-03T07:53:14;22.30;32.60
16287;DHT22;8251;53.568;10.018;2023-04-03T07:55:41;21.70;32.60
16287;DHT22;8251;53.568;10.018;2023-04-03T07:58:09;21.10;32.70
16287;DHT22;8251;53.568;10.018;2023-04-03T08:00:37;20.70;32.70
16287;DHT22;8251;53.568;10.018;2023-04-03T08:03:08;20.50;33.00
16287;DHT22;8251;53.568;10.018;2023-04-03T08:05:38;20.50;33.30
16287;DHT22;8251;53.568;10.018;2023-04-03T08:08:09;20.60;33.10
16287;DHT22;8251;53.568;10.018;2023-04-03T08:10:36;20.90;32.80
16287;DHT22;8251;53.568;10.018;2023-04-03T08:13:03;21.00;32.90
16287;DHT22;8251;53.568;10.018;2023-04-03T08:15:31;21.10;32.80
16287;DHT22;8251;53.568;10.018;2023-04-03T08:17:58;21.60;32.00
16287;DHT22;8251;53.568;10.018;2023-04-03T08:20:26;21.60;31.70
16287;DHT22;8251;53.568;10.018;2023-04-03T08:22:54;21.90;30.80
16287;DHT22;8251;53.568;10.018;2023-04-03T08:25:21;21.90;30.40
16287;DHT22;8251;53.568;10.018;2023-04-03T08:27:48;21.60;30.20
16287;DHT22;8251;53.568;10.018;2023-04-03T08:30:16;21.80;30.60
16287;DHT22;8251;53.568;10.018;2023-04-03T08:32:43;22.00;30.60
16287;DHT22;8251;53.568;10.018;2023-04-03T08:35:10;22.30;30.50
16287;DHT22;8251;53.568;10.018;2023-04-03T08:37:38;22.60;29.80
16287;DHT22;8251;53.568;10.018;2023-04-03T08:40:12;22.70;29.40
16287;DHT22;8251;53.568;10.018;2023-04-03T08:42:46;23.00;28.70
16287;DHT22;8251;53.568;10.018;2023-04-03T08:45:16;23.40;28.70
16287;DHT22;8251;53.568;10.018;2023-04-03T08:47:48;23.70;28.50
16287;DHT22;8251;53.568;10.018;2023-04-03T08:50:20;24.00;28.00
16287;DHT22;8251;53.568;10.018;2023-04-03T08:52:51;24.30;27.80
16287;DHT22;8251;53.568;10.018;2023-04-03T08:55:24;24.30;27.00
16287;DHT22;8251;53.568;10.018;2023-04-03T08:57:59;24.40;27.10
16287;DHT22;8251;53.568;10.018;2023-04-03T09:00:30;24.30;26.70
16287;DHT22;8251;53.568;10.018;2023-04-03T09:02:59;24.40;26.40
16287;DHT22;8251;53.568;10.018;2023-04-03T09:05:35;24.40;25.80
16287;DHT22;8251;53.568;10.018;2023-04-03T09:08:14;24.40;25.50
16287;DHT22;8251;53.568;10.018;2023-04-03T09:10:46;24.10;26.00
16287;DHT22;8251;53.568;10.018;2023-04-03T09:13:22;24.00;26.50
16287;DHT22;8251;53.568;10.018;2023-04-03T09:15:52;23.80;26.50
16287;DHT22;8251;53.568;10.018;2023-04-03T09:18:21;23.50;26.60
16287;DHT22;8251;53.568;10.018;2023-04-03T09:20:59;23.10;26.90
16287;DHT22;8251;53.568;10.018;2023-04-03T09:23:31;22.70;26.90
16287;DHT22;8251;53.568;10.018;2023-04-03T09:26:05;22.30;27.50
16287;DHT22;8251;53.568;10.018;2023-04-03T09:28:37;22.00;27.40
16287;DHT22;8251;53.568;10.018;2023-04-03T09:31:16;21.80;27.40
16287;DHT22;8251;53.568;10.018;2023-04-03T09:33:45;21.30;27.40
16287;DHT22;8251;53.568;10.018;2023-04-03T09:36:13;21.00;28.20
16287;DHT22;8251;53.568;10.018;2023-04-03T09:38:40;20.90;28.80
16287;DHT22;8251;53.568;10.018;2023-04-03T09:41:15;20.80;28.20
16287;DHT22;8251;53.568;10.018;2023-04-03T09:43:52;20.80;27.80
16287;DHT22;8251;53.568;10.018;2023-04-03T09:46:26;20.70;28.00
16287;DHT22;8251;53.568;10.018;2023-04-03T09:48:57;20.60;27.60
16287;DHT22;8251;53.568;10.018;2023-04-03T09:51:26;20.40;27.90
16287;DHT22;8251;53.568;10.018;2023-04-03T09:53:54;20.50;27.60
16287;DHT22;8251;53.568;10.018;2023-04-03T09:56:25;20.80;28.40
16287;DHT22;8251;53.568;10.018;2023-04-03T09:59:08;21.20;27.20
16287;DHT22;8251;53.568;10.018;2023-04-03T10:01:43;21.50;26.20
16287;DHT22;8251;53.568;10.018;2023-04-03T10:04:12;21.60;26.20
16287;DHT22;8251;53.568;10.018;2023-04-03T10:06:42;21.70;26.20
16287;DHT22;8251;53.568;10.018;2023-04-03T10:09:19;21.60;26.30
16287;DHT22;8251;53.568;10.018;2023-04-03T10:12:00;21.80;26.50
16287;DHT22;8251;53.568;10.018;2023-04-03T10:14:30;21.80;26.30
16287;DHT22;8251;53.568;10.018;2023-04-03T10:17:04;21.50;25.80
16287;DHT22;8251;53.568;10.018;2023-04-03T10:19:40;21.40;26.40
16287;DHT22;8251;53.568;10.018;2023-04-03T10:22:16;21.40;26.60
16287;DHT22;8251;53.568;10.018;2023-04-03T10:24:57;21.40;25.60
16287;DHT22;8251;53.568;10.018;2023-04-03T10:27:46;21.50;25.20
16287;DHT22;8251;53.568;10.018;2023-04-03T10:30:23;21.40;24.60
16287;DHT22;8251;53.568;10.018;2023-04-03T10:33:07;21.30;24.80
16287;DHT22;8251;53.568;10.018;2023-04-03T10:35:42;21.20;24.90
16287;DHT22;8251;53.568;10.018;2023-04-03T10:38:15;21.10;25.00
16287;DHT22;8251;53.568;10.018;2023-04-03T10:40:50;21.00;25.20
16287;DHT22;8251;53.568;10.018;2023-04-03T10:43:27;21.10;25.50
16287;DHT22;8251;53.568;10.018;2023-04-03T10:46:00;21.00;25.10
16287;DHT22;8251;53.568;10.018;2023-04-03T10:48:36;21.00;25.60
16287;DHT22;8251;53.568;10.018;2023-04-03T10:51:20;21.10;25.40
16287;DHT22;8251;53.568;10.018;2023-04-03T10:53:55;21.20;25.50
16287;DHT22;8251;53.568;10.018;2023-04-03T10:56:30;20.80;25.90
16287;DHT22;8251;53.568;10.018;2023-04-03T10:59:16;20.80;26.00
16287;DHT22;8251;53.568;10.018;2023-04-03T11:01:47;20.60;26.60
16287;DHT22;8251;53.568;10.018;2023-04-03T11:04:16;20.40;26.70
16287;DHT22;8251;53.568;10.018;2023-04-03T11:07:08;20.20;27.10
16287;DHT22;8251;53.568;10.018;2023-04-03T11:09:40;19.90;27.50
16287;DHT22;8251;53.568;10.018;2023-04-03T11:12:12;19.50;27.70
16287;DHT22;8251;53.568;10.018;2023-04-03T11:14:41;18.90;28.40
16287;DHT22;8251;53.568;10.018;2023-04-03T11:17:21;18.50;29.10
16287;DHT22;8251;53.568;10.018;2023-04-03T11:19:57;18.50;29.10
16287;DHT22;8251;53.568;10.018;2023-04-03T11:22:28;18.20;29.40
16287;DHT22;8251;53.568;10.018;2023-04-03T11:25:02;18.30;29.90
16287;DHT22;8251;53.568;10.018;2023-04-03T11:27:35;18.10;29.60
16287;DHT22;8251;53.568;10.018;2023-04-03T11:30:12;18.00;29.80
16287;DHT22;8251;53.568;10.018;2023-04-03T11:33:04;18.00;30.50
16287;DHT22;8251;53.568;10.018;2023-04-03T11:35:33;17.70;30.60
16287;DHT22;8251;53.568;10.018;2023-04-03T11:38:02;17.30;31.50
16287;DHT22;8251;53.568;10.018;2023-04-03T11:40:33;17.00;32.00
16287;DHT22;8251;53.568;10.018;2023-04-03T11:43:07;16.60;33.00
16287;DHT22;8251;53.568;10.018;2023-04-03T11:45:50;16.30;33.50
16287;DHT22;8251;53.568;10.018;2023-04-03T11:48:46;16.10;33.80
16287;DHT22;8251;53.568;10.018;2023-04-03T11:54:36;15.70;35.30
16287;DHT22;8251;53.568;10.018;2023-04-03T12:01:02;15.20;35.90
16287;DHT22;8251;53.568;10.018;2023-04-03T12:06:42;14.70;36.60
16287;DHT22;8251;53.568;10.018;2023-04-03T12:09:27;14.60;36.20
16287;DHT22;8251;53.568;10.018;2023-04-03T12:11:56;14.80;36.30
16287;DHT22;8251;53.568;10.018;2023-04-03T12:14:31;15.00;35.60
16287;DHT22;8251;53.568;10.018;2023-04-03T12:17:22;15.20;34.90
16287;DHT22;8251;53.568;10.018;2023-04-03T12:19:51;15.50;35.60
16287;DHT22;8251;53.568;10.018;2023-04-03T12:22:20;15.80;34.60
16287;DHT22;8251;53.568;10.018;2023-04-03T12:24:49;16.20;34.20
16287;DHT22;8251;53.568;10.018;2023-04-03T12:27:36;16.40;33.80
16287;DHT22;8251;53.568;10.018;2023-04-03T12:30:14;16.30;33.80
16287;DHT22;8251;53.568;10.018;2023-04-03T12:33:18;16.00;33.30
16287;DHT22;8251;53.568;10.018;2023-04-03T12:36:01;15.90;33.40
16287;DHT22;8251;53.568;10.018;2023-04-03T12:38:51;16.10;33.70
16287;DHT22;8251;53.568;10.018;2023-04-03T12:41:27;16.40;32.50
16287;DHT22;8251;53.568;10.018;2023-04-03T12:44:06;16.40;32.70
16287;DHT22;8251;53.568;10.018;2023-04-03T12:46:37;16.60;33.00
16287;DHT22;8251;53.568;10.018;2023-04-03T12:49:22;16.70;32.60
16287;DHT22;8251;53.568;10.018;2023-04-03T12:51:51;17.00;32.00
16287;DHT22;8251;53.568;10.018;2023-04-03T12:54:22;17.10;32.30
16287;DHT22;8251;53.568;10.018;2023-04-03T12:56:50;17.30;31.00
16287;DHT22;8251;53.568;10.018;2023-04-03T12:59:20;17.50;31.40
16287;DHT22;8251;53.568;10.018;2023-04-03T13:01:59;17.50;31.20
16287;DHT22;8251;53.568;10.018;2023-04-03T13:04:28;17.50;31.10
16287;DHT22;8251;53.568;10.018;2023-04-03T13:06:56;17.10;31.20
16287;DHT22;8251;53.568;10.018;2023-04-03T13:09:26;16.80;31.20
16287;DHT22;8251;53.568;10.018;2023-04-03T13:11:58;16.60;32.00
16287;DHT22;8251;53.568;10.018;2023-04-03T13:14:27;16.60;31.50
16287;DHT22;8251;53.568;10.018;2023-04-03T13:16:57;16.60;31.70
16287;DHT22;8251;53.568;10.018;2023-04-03T13:19:25;16.50;31.50
16287;DHT22;8251;53.568;10.018;2023-04-03T13:21:59;16.30;31.90
16287;DHT22;8251;53.568;10.018;2023-04-03T13:24:29;16.20;31.90
16287;DHT22;8251;53.568;10.018;2023-04-03T13:26:57;16.20;31.50
16287;DHT22;8251;53.568;10.018;2023-04-03T13:29:27;16.00;31.60
16287;DHT22;8251;53.568;10.018;2023-04-03T13:31:54;15.80;31.90
16287;DHT22;8251;53.568;10.018;2023-04-03T13:34:23;15.70;32.10
16287;DHT22;8251;53.568;10.018;2023-04-03T13:36:59;15.60;32.20
16287;DHT22;8251;53.568;10.018;2023-04-03T13:39:28;15.40;32.60
16287;DHT22;8251;53.568;10.018;2023-04-03T13:41:57;15.40;32.90
16287;DHT22;8251;53.568;10.018;2023-04-03T13:44:33;15.30;33.20
16287;DHT22;8251;53.568;10.018;2023-04-03T13:47:14;15.20;33.00
16287;DHT22;8251;53.568;10.018;2023-04-03T13:49:43;14.90;32.70
16287;DHT22;8251;53.568;10.018;2023-04-03T13:52:25;14.80;33.70
16287;DHT22;8251;53.568;10.018;2023-04-03T13:54:56;14.80;33.10
16287;DHT22;8251;53.568;10.018;2023-04-03T13:57:23;14.60;33.40
16287;DHT22;8251;53.568;10.018;2023-04-03T13:59:51;14.60;34.20
16287;DHT22;8251;53.568;10.018;2023-04-03T14:02:20;14.60;34.40
16287;DHT22;8251;53.568;10.018;2023-04-03T14:04:52;14.50;34.50
16287;DHT22;8251;53.568;10.018;2023-04-03T14:07:23;14.50;34.00
16287;DHT22;8251;53.568;10.018;2023-04-03T14:09:51;14.50;33.70
16287;DHT22;8251;53.568;10.018;2023-04-03T14:12:21;14.40;33.20
16287;DHT22;8251;53.568;10.018;2023-04-03T14:14:50;14.40;33.70
16287;DHT22;8251;53.568;10.018;2023-04-03T14:17:20;14.40;33.60
16287;DHT22;8251;53.568;10.018;2023-04-03T14:19:49;14.40;33.30
16287;DHT22;8251;53.568;10.018;2023-04-03T14:22:19;14.40;32.80
16287;DHT22;8251;53.568;10.018;2023-04-03T14:24:49;14.40;32.70
16287;DHT22;8251;53.568;10.018;2023-04-03T14:27:20;14.40;33.20
16287;DHT22;8251;53.568;10.018;2023-04-03T14:29:49;14.20;33.90
16287;DHT22;8251;53.568;10.018;2023-04-03T14:32:17;14.10;34.10
16287;DHT22;8251;53.568;10.018;2023-04-03T14:34:45;14.10;34.60
16287;DHT22;8251;53.568;10.018;2023-04-03T14:37:14;14.00;34.50
16287;DHT22;8251;53.568;10.018;2023-04-03T14:39:42;13.90;34.60
16287;DHT22;8251;53.568;10.018;2023-04-03T14:42:25;13.80;34.60
16287;DHT22;8251;53.568;10.018;2023-04-03T14:44:55;13.70;35.30
16287;DHT22;8251;53.568;10.018;2023-04-03T14:47:30;13.80;35.30
16287;DHT22;8251;53.568;10.018;2023-04-03T14:50:01;13.80;35.40
16287;DHT22;8251;53.568;10.018;2023-04-03T14:52:39;13.80;35.70
16287;DHT22;8251;53.568;10.018;2023-04-03T14:55:08;13.80;35.90
16287;DHT22;8251;53.568;10.018;2023-04-03T14:57:53;13.80;35.00
16287;DHT22;8251;53.568;10.018;2023-04-03T15:00:30;13.70;35.40
16287;DHT22;8251;53.568;10.018;2023-04-03T15:02:57;13.50;35.60
16287;DHT22;8251;53.568;10.018;2023-04-03T15:05:31;13.50;36.20
16287;DHT22;8251;53.568;10.018;2023-04-03T15:07:58;13.60;36.80
16287;DHT22;8251;53.568;10.018;2023-04-03T15:10:27;13.70;36.90
16287;DHT22;8251;53.568;10.018;2023-04-03T15:12:57;13.80;36.50
16287;DHT22;8251;53.568;10.018;2023-04-03T15:15:24;13.90;36.10
16287;DHT22;8251;53.568;10.018;2023-04-03T15:17:55;13.70;36.00
16287;DHT22;8251;53.568;10.018;2023-04-03T15:20:24;13.60;36.80
16287;DHT22;8251;53.568;10.018;2023-04-03T15:22:52;13.50;36.70
16287;DHT22;8251;53.568;10.018;2023-04-03T15:25:19;13.30;37.20
16287;DHT22;8251;53.568;10.018;2023-04-03T15:27:46;13.20;38.00
16287;DHT22;8251;53.568;10.018;2023-04-03T15:30:17;13.10;38.50
16287;DHT22;8251;53.568;10.018;2023-04-03T15:32:44;13.20;39.00
16287;DHT22;8251;53.568;10.018;2023-04-03T15:35:12;13.30;38.80
16287;DHT22;8251;53.568;10.018;2023-04-03T15:37:39;13.40;38.60
16287;DHT22;8251;53.568;10.018;2023-04-03T15:40:07;13.40;38.70
16287;DHT22;8251;53.568;10.018;2023-04-03T15:42:36;13.50;38.80
16287;DHT22;8251;53.568;10.018;2023-04-03T15:45:03;13.50;38.80
16287;DHT22;8251;53.568;10.018;2023-04-03T15:47:33;13.50;39.20
16287;DHT22;8251;53.568;10.018;2023-04-03T15:50:00;13.70;39.10
16287;DHT22;8251;53.568;10.018;2023-04-03T15:52:27;13.60;37.80
16287;DHT22;8251;53.568;10.018;2023-04-03T15:54:57;13.60;37.80
16287;DHT22;8251;53.568;10.018;2023-04-03T15:57:26;13.40;38.20
16287;DHT22;8251;53.568;10.018;2023-04-03T15:59:56;13.20;38.60
16287;DHT22;8251;53.568;10.018;2023-04-03T16:02:24;13.10;39.30
16287;DHT22;8251;53.568;10.018;2023-04-03T16:04:55;13.10;39.50
16287;DHT22;8251;53.568;10.018;2023-04-03T16:07:22;13.00;39.70
16287;DHT22;8251;53.568;10.018;2023-04-03T16:09:49;13.00;39.60